Time;durP1;ratioP1;P1;durP2;ratioP2;P2;SDS_P1;SDS_P2;PMS_P1;PMS_P2;Temp;Humidity;BMP_temperature;BMP_pressure;BME280_temperature;BME280_humidity;BME280_pressure;Samples;Min_cycle;Max_cycle;Signal;HPM_P1;HPM_P2
2023/03/05 00:00:40;;;;;;;9.47;2.63;;;;;;;1.13;100.00;100703.41;5003491;28;20192;-72
2023/03/05 00:03:07;;;;;;;8.90;2.53;;;;;;;1.11;100.00;100705.09;5019569;28;20200;-71
2023/03/05 00:05:33;;;;;;;11.03;2.73;;;;;;;1.09;100.00;100704.22;5003218;28;20588;-71
2023/03/05 00:08:00;;;;;;;7.30;2.40;;;;;;;1.08;100.00;100709.31;5020526;28;20300;-72
2023/03/05 00:10:28;;;;;;;9.63;2.70;;;;;;;1.07;100.00;100700.75;5024156;28;20230;-72
2023/03/05 00:12:54;;;;;;;9.17;2.47;;;;;;;1.07;100.00;100697.31;5021945;28;20217;-72
2023/03/05 00:15:21;;;;;;;6.70;2.10;;;;;;;1.06;100.00;100695.59;5005796;28;20652;-72
2023/03/05 00:17:47;;;;;;;6.60;2.50;;;;;;;1.05;100.00;100694.72;5007158;28;20295;-72
2023/03/05 00:20:14;;;;;;;8.93;2.43;;;;;;;1.06;100.00;100693.03;5007288;28;20210;-72
2023/03/05 00:22:40;;;;;;;10.23;2.23;;;;;;;1.07;100.00;100697.31;5021925;28;20220;-72
2023/03/05 00:25:07;;;;;;;8.03;2.30;;;;;;;1.08;100.00;100693.91;5023732;28;20192;-72
2023/03/05 00:27:35;;;;;;;10.57;2.53;;;;;;;1.05;100.00;100686.16;5018471;28;20196;-72
2023/03/05 00:30:02;;;;;;;8.43;2.23;;;;;;;1.03;100.00;100680.16;5000625;28;20200;-71
2023/03/05 00:32:29;;;;;;;12.07;2.77;;;;;;;1.01;100.00;100681.84;5006946;28;20222;-72
2023/03/05 00:34:55;;;;;;;7.70;2.20;;;;;;;0.98;100.00;100676.66;5004808;28;20212;-72
2023/03/05 00:37:22;;;;;;;9.50;1.80;;;;;;;0.97;100.00;100680.03;5008878;28;20199;-72
2023/03/05 00:39:48;;;;;;;6.67;2.43;;;;;;;0.99;100.00;100679.25;5024930;28;20272;-72
2023/03/05 00:42:14;;;;;;;10.00;2.50;;;;;;;0.99;100.00;100670.69;5003591;28;20577;-72
2023/03/05 00:44:42;;;;;;;9.23;2.00;;;;;;;0.97;100.00;100667.19;5019815;28;20191;-72
2023/03/05 00:47:09;;;;;;;3.10;2.17;;;;;;;0.97;100.00;100672.34;5007041;28;20990;-72
2023/03/05 00:49:36;;;;;;;8.83;2.20;;;;;;;0.93;100.00;100664.63;5004729;28;20687;-72
2023/03/05 00:52:03;;;;;;;9.70;2.83;;;;;;;0.93;100.00;100663.72;5022980;28;20726;-72
2023/03/05 00:54:29;;;;;;;7.03;2.27;;;;;;;0.96;100.00;100660.38;5023479;28;20219;-72
2023/03/05 00:56:55;;;;;;;8.23;2.27;;;;;;;0.94;100.00;100660.34;5010987;28;20550;-72
2023/03/05 00:59:22;;;;;;;5.83;2.17;;;;;;;0.95;100.00;100662.06;5008446;28;20284;-72
2023/03/05 01:01:49;;;;;;;14.93;2.63;;;;;;;0.97;100.00;100649.22;5021648;28;20649;-72
2023/03/05 01:04:16;;;;;;;4.77;2.30;;;;;;;0.96;100.00;100647.53;5007370;28;20502;-72
2023/03/05 01:06:45;;;;;;;8.57;2.13;;;;;;;0.93;100.00;100645.75;5022395;28;20849;-72
2023/03/05 01:09:13;;;;;;;5.43;1.30;;;;;;;0.93;100.00;100638.06;5023676;28;20207;-72
2023/03/05 01:11:40;;;;;;;13.63;2.90;;;;;;;0.95;100.00;100638.97;5024556;28;20235;-72
2023/03/05 01:14:06;;;;;;;7.57;2.23;;;;;;;0.94;100.00;100635.50;5021854;28;20775;-72
2023/03/05 01:16:32;;;;;;;13.07;2.57;;;;;;;0.93;100.00;100636.38;5006207;28;20900;-72
2023/03/05 01:19:00;;;;;;;11.07;2.20;;;;;;;0.95;100.00;100628.69;5022624;28;20250;-72
2023/03/05 01:21:26;;;;;;;3.57;1.53;;;;;;;0.93;100.00;100626.09;5023303;28;20218;-71
2023/03/05 01:23:53;;;;;;;5.93;1.97;;;;;;;0.92;100.00;100626.94;5023276;28;20668;-72
2023/03/05 01:26:19;;;;;;;5.70;1.67;;;;;;;0.92;100.00;100631.22;5027451;28;20556;-72
2023/03/05 01:28:46;;;;;;;6.67;1.67;;;;;;;0.94;100.00;100634.66;5012090;28;20310;-72
2023/03/05 01:31:12;;;;;;;7.00;1.70;;;;;;;0.96;100.00;100619.28;5024340;28;20262;-72
2023/03/05 01:33:39;;;;;;;9.90;2.07;;;;;;;0.98;100.00;100621.00;5002844;28;20203;-72
2023/03/05 01:36:12;;;;;;;8.17;2.23;;;;;;;0.97;100.00;100613.28;5022901;28;20204;-72
2023/03/05 01:38:38;;;;;;;6.90;1.67;;;;;;;0.95;100.00;100610.72;5024670;28;20219;-72
2023/03/05 01:41:05;;;;;;;12.00;2.60;;;;;;;0.92;100.00;100602.97;5005776;28;20224;-72
2023/03/05 01:43:31;;;;;;;8.27;1.90;;;;;;;0.91;100.00;100606.38;5026290;28;20232;-72
2023/03/05 01:46:32;;;;;;;12.60;2.13;;;;;;;0.90;100.00;100600.38;5008458;28;20676;-71
2023/03/05 01:49:04;;;;;;;6.23;1.70;;;;;;;0.91;100.00;100604.66;5021248;28;20657;-72
2023/03/05 01:51:35;;;;;;;7.63;2.10;;;;;;;0.91;100.00;100599.53;5004101;28;20331;-72
2023/03/05 01:54:02;;;;;;;7.73;2.03;;;;;;;0.89;100.00;100593.50;5026151;28;20216;-72
2023/03/05 01:56:30;;;;;;;5.87;1.53;;;;;;;0.88;100.00;100589.25;5022465;28;20199;-72
2023/03/05 01:59:02;;;;;;;13.20;2.07;;;;;;;0.87;100.00;100590.06;5008719;28;20497;-72
2023/03/05 02:01:33;;;;;;;5.10;1.43;;;;;;;0.85;100.00;100589.19;5027552;28;20219;-72
2023/03/05 02:04:00;;;;;;;10.60;1.90;;;;;;;0.86;100.00;100583.22;5004900;28;20207;-71
2023/03/05 02:06:27;;;;;;;9.37;1.53;;;;;;;0.87;100.00;100586.66;5022329;28;20459;-72
2023/03/05 02:08:56;;;;;;;4.27;1.53;;;;;;;0.84;100.00;100584.88;5025078;28;20200;-71
2023/03/05 02:11:23;;;;;;;5.77;1.80;;;;;;;0.86;100.00;100583.22;5002997;28;20224;-71
2023/03/05 02:13:51;;;;;;;4.50;1.53;;;;;;;0.85;100.00;100575.50;5008459;28;20203;-72
2023/03/05 02:16:17;;;;;;;9.93;1.80;;;;;;;0.84;100.00;100568.63;5023069;28;20197;-72
2023/03/05 02:18:44;;;;;;;12.00;1.57;;;;;;;0.83;100.00;100570.34;5010459;28;20196;-72
2023/03/05 02:21:12;;;;;;;13.63;1.90;;;;;;;0.83;100.00;100561.78;5008850;28;20228;-72
2023/03/05 02:23:39;;;;;;;7.80;1.90;;;;;;;0.84;100.00;100563.50;5007252;28;20196;-72
2023/03/05 02:26:08;;;;;;;10.67;2.10;;;;;;;0.83;100.00;100565.22;5021246;28;20605;-72
2023/03/05 02:28:39;;;;;;;8.80;2.37;;;;;;;0.83;100.00;100565.22;5020430;28;20242;-72
2023/03/05 02:31:14;;;;;;;6.87;1.77;;;;;;;0.84;100.00;100569.47;5021912;28;20216;-72
2023/03/05 02:33:40;;;;;;;7.33;1.60;;;;;;;0.83;100.00;100562.66;5025114;28;20540;-72
2023/03/05 02:36:08;;;;;;;12.40;1.87;;;;;;;0.79;100.00;100560.00;5025272;28;20208;-72
2023/03/05 02:38:36;;;;;;;5.10;1.47;;;;;;;0.78;100.00;100548.88;5026702;28;20184;-72
2023/03/05 02:41:03;;;;;;;8.80;1.40;;;;;;;0.75;100.00;100557.41;5005898;28;20223;-72
2023/03/05 02:43:29;;;;;;;2.83;1.57;;;;;;;0.75;100.00;100552.25;5008007;28;20250;-72
2023/03/05 02:45:56;;;;;;;7.87;1.20;;;;;;;0.72;100.00;100549.69;5003781;28;20196;-71
2023/03/05 02:48:22;;;;;;;4.53;1.53;;;;;;;0.71;100.00;100541.97;5023852;28;20541;-71
2023/03/05 02:50:49;;;;;;;9.23;1.70;;;;;;;0.71;100.00;100542.81;5025274;28;20199;-72
2023/03/05 02:53:16;;;;;;;5.53;1.50;;;;;;;0.68;100.00;100541.91;5019203;28;20204;-72
2023/03/05 02:55:46;;;;;;;5.47;1.17;;;;;;;0.66;100.00;100548.72;5022860;28;20269;-72
2023/03/05 02:58:12;;;;;;;3.10;1.20;;;;;;;0.64;100.00;100548.72;5005583;28;20208;-72
2023/03/05 03:00:39;;;;;;;4.67;1.33;;;;;;;0.62;100.00;100546.97;5016242;28;20204;-72
2023/03/05 03:03:05;;;;;;;4.77;1.20;;;;;;;0.63;100.00;100541.84;5022607;28;20297;-72
2023/03/05 03:05:33;;;;;;;8.10;1.50;;;;;;;0.60;100.00;100541.81;4997424;28;20205;-72
2023/03/05 03:07:59;;;;;;;6.97;1.53;;;;;;;0.60;100.00;100548.63;5020346;28;20196;-72
2023/03/05 03:10:25;;;;;;;10.83;1.53;;;;;;;0.58;100.00;100543.47;5022882;28;20200;-72
2023/03/05 03:12:53;;;;;;;5.57;2.03;;;;;;;0.57;100.00;100542.63;5023811;28;20224;-72
2023/03/05 03:15:20;;;;;;;5.70;1.73;;;;;;;0.54;100.00;100540.00;5021489;28;20708;-72
2023/03/05 03:17:46;;;;;;;7.37;2.07;;;;;;;0.52;100.00;100533.16;5002123;28;20691;-72
2023/03/05 03:20:15;;;;;;;6.07;1.13;;;;;;;0.50;100.00;100540.81;5022971;28;20204;-71
2023/03/05 03:22:43;;;;;;;3.90;1.00;;;;;;;0.49;100.00;100538.22;5024664;28;20224;-72
2023/03/05 03:25:10;;;;;;;10.50;1.40;;;;;;;0.45;100.00;100536.47;5024250;28;20714;-72
2023/03/05 03:27:37;;;;;;;4.03;1.23;;;;;;;0.42;100.00;100537.28;5018835;28;20195;-72
2023/03/05 03:30:06;;;;;;;10.40;1.30;;;;;;;0.40;100.00;100535.53;5024430;28;20662;-72
2023/03/05 03:32:33;;;;;;;2.67;1.43;;;;;;;0.38;100.00;100535.53;5024713;28;20604;-72
2023/03/05 03:35:00;;;;;;;14.73;1.73;;;;;;;0.34;100.00;100534.63;5025669;28;20211;-72
2023/03/05 03:37:28;;;;;;;3.87;1.37;;;;;;;0.32;100.00;100522.63;5022683;28;20219;-71
2023/03/05 03:39:55;;;;;;;5.70;1.20;;;;;;;0.28;100.00;100533.66;5022141;28;20210;-72
2023/03/05 03:42:22;;;;;;;4.10;1.10;;;;;;;0.25;100.00;100537.06;5021274;28;20234;-72
2023/03/05 03:44:49;;;;;;;7.27;1.13;;;;;;;0.22;100.00;100526.75;5018824;28;20191;-72
2023/03/05 03:47:18;;;;;;;5.20;1.30;;;;;;;0.20;100.00;100530.16;5023836;28;20213;-72
2023/03/05 03:49:44;;;;;;;4.00;0.93;;;;;;;0.17;100.00;100526.66;5023850;28;20231;-71
2023/03/05 03:52:11;;;;;;;5.60;1.63;;;;;;;0.15;100.00;100532.63;5023735;28;20230;-72
2023/03/05 03:54:39;;;;;;;3.13;1.33;;;;;;;0.12;100.00;100520.63;5000667;28;20216;-72
2023/03/05 03:57:06;;;;;;;6.87;1.70;;;;;;;0.08;100.00;100526.53;5021217;28;20196;-72
2023/03/05 03:59:33;;;;;;;3.93;1.17;;;;;;;0.09;100.00;100529.97;5021396;28;20192;-71
2023/03/05 04:01:59;;;;;;;6.67;1.30;;;;;;;0.08;100.00;100523.97;5023935;28;20224;-72
2023/03/05 04:04:29;;;;;;;5.23;1.03;;;;;;;0.06;100.00;100524.81;5026463;28;20691;-72
2023/03/05 04:06:55;;;;;;;5.23;1.03;;;;;;;0.04;100.00;100529.06;5006137;28;20558;-72
2023/03/05 04:09:22;;;;;;;7.27;1.33;;;;;;;0.03;100.00;100528.16;5021448;28;20235;-71
2023/03/05 04:11:48;;;;;;;5.27;1.30;;;;;;;0.03;100.00;100524.75;5023825;28;20223;-72
2023/03/05 04:14:14;;;;;;;4.07;1.30;;;;;;;0.01;100.00;100523.88;5020495;28;20236;-72
2023/03/05 04:16:41;;;;;;;4.10;1.23;;;;;;;-0.02;100.00;100514.41;5021623;28;20566;-72
2023/03/05 04:19:07;;;;;;;6.40;1.30;;;;;;;-0.03;100.00;100508.44;5020514;28;20197;-71
2023/03/05 04:21:35;;;;;;;6.20;0.70;;;;;;;-0.01;100.00;100516.16;5019723;28;20229;-72
2023/03/05 04:24:01;;;;;;;1.63;0.93;;;;;;;-0.03;100.00;100512.72;5006232;28;20235;-72
2023/03/05 04:26:28;;;;;;;1.83;0.70;;;;;;;-0.02;100.00;100517.88;5021459;28;20205;-72
2023/03/05 04:28:54;;;;;;;3.23;1.00;;;;;;;-0.02;100.00;100509.28;5023730;28;20191;-72
2023/03/05 04:31:21;;;;;;;1.47;0.73;;;;;;;-0.05;100.00;100507.56;5006087;28;20705;-71
2023/03/05 04:33:47;;;;;;;8.60;1.27;;;;;;;-0.07;100.00;100505.78;5017235;28;20291;-72
2023/03/05 04:36:14;;;;;;;5.87;1.63;;;;;;;-0.08;100.00;100502.38;5017198;28;20236;-72
2023/03/05 04:38:41;;;;;;;3.93;0.90;;;;;;;-0.09;100.00;100486.97;5020545;28;20197;-72
2023/03/05 04:41:08;;;;;;;6.27;1.30;;;;;;;-0.12;100.00;100500.63;5024608;28;20620;-72
2023/03/05 04:43:34;;;;;;;6.53;1.20;;;;;;;-0.12;100.00;100492.03;5022588;28;20199;-71
2023/03/05 04:46:00;;;;;;;2.70;1.20;;;;;;;-0.12;100.00;100492.03;5023734;28;20188;-72
2023/03/05 04:48:27;;;;;;;5.30;0.97;;;;;;;-0.13;100.00;100486.06;5018825;28;20603;-72
2023/03/05 04:50:56;;;;;;;3.60;1.30;;;;;;;-0.14;100.00;100488.59;5005557;28;20196;-72
2023/03/05 04:53:22;;;;;;;5.63;1.57;;;;;;;-0.15;100.00;100481.75;5021565;28;20200;-72
2023/03/05 04:55:53;;;;;;;6.93;1.63;;;;;;;-0.17;100.00;100481.75;5004167;28;20673;-71
2023/03/05 04:58:20;;;;;;;1.80;1.07;;;;;;;-0.18;100.00;100480.00;5021720;28;20238;-72
2023/03/05 05:00:46;;;;;;;0.80;0.70;;;;;;;-0.21;100.00;100474.84;5019327;28;20192;-72
2023/03/05 05:03:12;;;;;;;4.00;1.00;;;;;;;-0.23;100.00;100468.81;5021969;28;20287;-71
2023/03/05 05:05:39;;;;;;;2.13;1.10;;;;;;;-0.24;100.00;100465.41;5028687;28;20199;-72
2023/03/05 05:08:05;;;;;;;2.27;0.90;;;;;;;-0.30;100.00;100465.31;5021452;28;20188;-72
2023/03/05 05:10:32;;;;;;;1.70;1.00;;;;;;;-0.32;100.00;100468.69;5022271;28;20768;-72
2023/03/05 05:13:00;;;;;;;5.80;1.23;;;;;;;-0.37;100.00;100473.72;5024392;28;20220;-72
2023/03/05 05:15:27;;;;;;;5.07;1.00;;;;;;;-0.42;100.00;100465.13;5021571;28;20211;-72
2023/03/05 05:17:54;;;;;;;2.13;1.30;;;;;;;-0.48;100.00;100462.44;5024198;28;20600;-72
2023/03/05 05:20:20;;;;;;;5.27;1.47;;;;;;;-0.55;100.00;100463.19;5025460;28;20579;-71
2023/03/05 05:22:47;;;;;;;3.70;0.77;;;;;;;-0.63;100.00;100466.50;5019627;28;20226;-72
2023/03/05 05:25:13;;;;;;;6.13;1.37;;;;;;;-0.68;100.00;100462.97;5023312;28;20199;-72
2023/03/05 05:27:40;;;;;;;2.47;0.80;;;;;;;-0.73;100.00;100462.03;5026681;28;20211;-72
2023/03/05 05:30:09;;;;;;;2.87;0.90;;;;;;;-0.80;100.00;100465.34;5021924;28;20197;-72
2023/03/05 05:32:36;;;;;;;1.97;0.93;;;;;;;-0.86;100.00;100455.84;5025544;28;20217;-72
2023/03/05 05:35:03;;;;;;;2.43;1.10;;;;;;;-0.95;100.00;100460.78;5026377;28;20195;-72
2023/03/05 05:37:30;;;;;;;0.83;0.80;;;;;;;-1.03;100.00;100458.09;5025999;28;20789;-71
2023/03/05 05:39:56;;;;;;;3.70;0.83;;;;;;;-1.04;100.00;100463.19;5029088;28;20548;-71
2023/03/05 05:42:24;;;;;;;3.80;1.13;;;;;;;-1.08;100.00;100464.81;5027247;28;20231;-71
2023/03/05 05:44:51;;;;;;;2.53;1.07;;;;;;;-1.11;100.00;100463.91;5028997;28;20207;-72
2023/03/05 05:47:20;;;;;;;4.13;1.20;;;;;;;-1.15;100.00;100463.84;5030351;28;20760;-72
2023/03/05 05:49:46;;;;;;;2.63;0.97;;;;;;;-1.21;100.00;100453.50;5028970;28;20196;-72
2023/03/05 05:52:14;;;;;;;5.20;1.13;;;;;;;-1.22;100.00;100464.56;5035662;28;20231;-72
2023/03/05 05:54:41;;;;;;;5.00;0.90;;;;;;;-1.26;100.00;100457.66;5028324;28;20200;-71
2023/03/05 05:57:08;;;;;;;3.13;1.30;;;;;;;-1.24;100.00;100457.69;5031272;28;20208;-72
2023/03/05 05:59:35;;;;;;;5.13;1.57;;;;;;;-1.21;100.00;100463.75;5029100;28;20227;-71
2023/03/05 06:02:02;;;;;;;4.10;1.13;;;;;;;-1.21;100.00;100460.31;5026745;28;20230;-72
2023/03/05 06:04:30;;;;;;;1.97;1.03;;;;;;;-1.21;100.00;100457.78;5028144;28;20215;-72
2023/03/05 06:06:58;;;;;;;1.73;0.77;;;;;;;-1.21;100.00;100462.88;5029828;28;20188;-72
2023/03/05 06:09:24;;;;;;;1.50;0.90;;;;;;;-1.21;100.00;100463.75;5027327;28;20203;-72
2023/03/05 06:11:51;;;;;;;4.83;1.27;;;;;;;-1.19;100.00;100464.63;5026066;28;20216;-72
2023/03/05 06:14:17;;;;;;;7.87;1.33;;;;;;;-1.12;100.00;100457.94;5031303;28;20208;-71
2023/03/05 06:16:44;;;;;;;1.03;0.93;;;;;;;-1.01;100.00;100458.13;5026156;28;20296;-71
2023/03/05 06:19:11;;;;;;;2.30;1.07;;;;;;;-0.88;100.00;100465.22;5035367;28;20207;-72
2023/03/05 06:21:39;;;;;;;4.13;1.30;;;;;;;-0.80;100.00;100462.78;5029280;28;20230;-72
2023/03/05 06:24:06;;;;;;;3.80;1.20;;;;;;;-0.73;100.00;100466.31;5026204;28;20192;-72
2023/03/05 06:26:33;;;;;;;3.70;0.90;;;;;;;-0.68;100.00;100475.78;5029364;28;20192;-72
2023/03/05 06:28:59;;;;;;;5.37;0.90;;;;;;;-0.65;100.00;100462.16;5024228;28;20192;-72
2023/03/05 06:31:28;;;;;;;2.67;1.00;;;;;;;-0.60;100.00;100471.66;5025217;28;20221;-71
2023/03/05 06:33:56;;;;;;;1.93;1.00;;;;;;;-0.57;100.00;100474.25;5027160;28;20202;-72
2023/03/05 06:36:24;;;;;;;2.10;0.83;;;;;;;-0.49;100.00;100486.31;5026824;28;20686;-72
2023/03/05 06:38:53;;;;;;;7.57;1.20;;;;;;;-0.42;100.00;100481.34;5022405;28;20209;-71
2023/03/05 06:41:22;;;;;;;1.90;0.97;;;;;;;-0.34;100.00;100478.03;5027270;28;20239;-72
2023/03/05 06:43:48;;;;;;;2.37;1.13;;;;;;;-0.27;100.00;100479.88;5028024;28;20206;-72
2023/03/05 06:46:17;;;;;;;8.53;1.40;;;;;;;-0.24;100.00;100470.53;5024477;28;20432;-72
2023/03/05 06:48:44;;;;;;;5.47;1.40;;;;;;;-0.17;100.00;100468.94;5029611;28;20202;-72
2023/03/05 06:51:14;;;;;;;3.03;1.30;;;;;;;-0.12;100.00;100474.97;5024923;28;20224;-71
2023/03/05 06:53:41;;;;;;;4.33;1.57;;;;;;;-0.06;100.00;100472.50;5024673;28;20201;-72
2023/03/05 06:56:09;;;;;;;3.10;1.30;;;;;;;0.00;100.00;100466.63;5022996;28;20672;-72
2023/03/05 06:58:36;;;;;;;3.70;1.30;;;;;;;0.04;100.00;100470.94;5023554;28;20195;-72
2023/03/05 07:01:05;;;;;;;6.10;1.70;;;;;;;0.09;100.00;100477.00;5023007;28;20246;-72
2023/03/05 07:03:31;;;;;;;2.20;1.47;;;;;;;0.15;100.00;100473.66;5029175;28;20637;-71
2023/03/05 07:05:58;;;;;;;3.70;1.30;;;;;;;0.21;100.00;100465.19;5023255;28;20204;-72
2023/03/05 07:08:24;;;;;;;3.73;1.47;;;;;;;0.25;100.00;100461.84;5024966;28;20215;-71
2023/03/05 07:10:50;;;;;;;2.80;1.50;;;;;;;0.27;100.00;100465.28;5019617;28;20196;-72
2023/03/05 07:13:18;;;;;;;3.77;1.97;;;;;;;0.30;100.00;100462.72;5025491;28;20207;-72
2023/03/05 07:15:44;;;;;;;4.37;1.67;;;;;;;0.33;100.00;100458.50;5004246;28;20557;-71
2023/03/05 07:18:11;;;;;;;6.07;1.80;;;;;;;0.42;100.00;100457.75;5022734;28;20207;-71
2023/03/05 07:20:37;;;;;;;6.30;1.83;;;;;;;0.46;100.00;100454.41;5022233;28;20199;-72
2023/03/05 07:23:04;;;;;;;3.80;1.50;;;;;;;0.50;100.00;100445.91;5025221;28;20693;-72
2023/03/05 07:25:31;;;;;;;6.23;2.10;;;;;;;0.55;100.00;100451.94;5020576;28;20596;-72
2023/03/05 07:27:58;;;;;;;3.23;1.57;;;;;;;0.63;100.00;100456.31;5023277;28;20206;-72
2023/03/05 07:30:25;;;;;;;11.40;1.90;;;;;;;0.67;100.00;100460.63;5023679;28;20188;-72
2023/03/05 07:32:52;;;;;;;5.17;1.67;;;;;;;0.73;100.00;100455.56;5020503;28;20228;-72
2023/03/05 07:35:18;;;;;;;2.27;1.47;;;;;;;0.77;100.00;100456.47;5022759;28;20203;-72
2023/03/05 07:37:45;;;;;;;5.00;1.47;;;;;;;0.80;100.00;100472.75;5021885;28;20774;-72
2023/03/05 07:40:11;;;;;;;3.10;1.70;;;;;;;0.80;100.00;100461.63;5004147;28;20534;-72
2023/03/05 07:42:38;;;;;;;4.63;1.70;;;;;;;0.83;100.00;100459.97;5018207;28;20637;-72
2023/03/05 07:45:14;;;;;;;6.87;2.30;;;;;;;0.85;100.00;100473.69;5008027;28;20569;-72
2023/03/05 07:47:41;;;;;;;4.40;1.43;;;;;;;0.90;100.00;100459.19;5019409;28;20188;-72
2023/03/05 07:50:09;;;;;;;5.83;1.87;;;;;;;0.90;100.00;100460.91;5015289;28;20209;-72
2023/03/05 07:52:35;;;;;;;2.00;1.27;;;;;;;0.94;100.00;100460.06;5019222;28;20224;-72
2023/03/05 07:55:02;;;;;;;5.03;1.73;;;;;;;0.97;100.00;100460.13;5019994;28;20199;-72
2023/03/05 07:57:28;;;;;;;2.83;1.50;;;;;;;1.03;100.00;100459.31;5019752;28;20269;-72
2023/03/05 07:59:55;;;;;;;3.70;1.53;;;;;;;1.07;100.00;100467.06;5018284;28;20279;-72
2023/03/05 08:02:21;;;;;;;2.00;1.33;;;;;;;1.05;100.00;100449.91;5022545;28;20216;-72
2023/03/05 08:04:49;;;;;;;5.60;1.30;;;;;;;1.02;100.00;100457.56;5022197;28;20209;-72
2023/03/05 08:07:16;;;;;;;10.17;1.63;;;;;;;0.98;100.00;100466.97;5017962;28;20196;-72
2023/03/05 08:09:42;;;;;;;2.83;1.40;;;;;;;1.00;100.00;100457.56;5021148;28;22372;-72
2023/03/05 08:12:09;;;;;;;5.97;1.27;;;;;;;1.03;100.00;100455.03;5018607;28;20223;-72
2023/03/05 08:14:39;;;;;;;5.57;1.17;;;;;;;1.06;100.00;100452.50;5003854;28;20290;-72
2023/03/05 08:17:07;;;;;;;1.77;0.90;;;;;;;1.11;100.00;100450.00;5022257;28;20306;-71
2023/03/05 08:19:33;;;;;;;5.20;1.50;;;;;;;1.24;100.00;100448.38;5019043;28;20670;-72
2023/03/05 08:22:01;;;;;;;3.13;0.90;;;;;;;1.33;100.00;100438.19;5007693;28;20726;-72
2023/03/05 08:24:29;;;;;;;3.47;1.20;;;;;;;1.35;100.00;100433.06;5018735;28;20196;-72
2023/03/05 08:26:57;;;;;;;3.50;1.30;;;;;;;1.37;100.00;100428.78;5023166;28;20192;-72
2023/03/05 08:29:23;;;;;;;0.87;0.77;;;;;;;1.34;100.00;100427.06;5016679;28;20208;-72
2023/03/05 08:31:52;;;;;;;1.07;0.80;;;;;;;1.25;100.00;100424.41;5003694;28;20256;-72
2023/03/05 08:34:18;;;;;;;1.47;0.90;;;;;;;1.17;100.00;100421.78;5022500;28;20218;-72
2023/03/05 08:36:45;;;;;;;3.03;1.13;;;;;;;1.07;100.00;100423.44;5020113;28;20680;-72
2023/03/05 08:39:13;;;;;;;5.00;1.20;;;;;;;1.13;100.00;100420.91;5023028;28;20610;-72
2023/03/05 08:41:39;;;;;;;2.47;2.03;;;;;;;1.24;100.00;100417.56;5021064;28;20215;-72
2023/03/05 08:44:06;;;;;;;3.27;1.50;;;;;;;1.31;100.00;100416.78;5006839;28;20291;-72
2023/03/05 08:46:33;;;;;;;1.97;0.90;;;;;;;1.38;100.00;100417.69;5022497;28;20196;-72
2023/03/05 08:49:00;;;;;;;1.30;0.90;;;;;;;1.39;100.00;100415.13;5023107;28;20282;-72
2023/03/05 08:51:27;;;;;;;3.63;1.30;;;;;;;1.41;100.00;100417.72;5018977;28;20595;-72
2023/03/05 08:53:55;;;;;;;2.40;1.00;;;;;;;1.31;100.00;100429.63;5025681;28;20209;-71
2023/03/05 08:56:24;;;;;;;1.83;1.20;;;;;;;1.24;100.00;100432.97;5020639;28;20212;-72
2023/03/05 08:58:51;;;;;;;2.90;1.00;;;;;;;1.35;100.00;100425.34;5020449;28;20250;-72
2023/03/05 09:01:18;;;;;;;2.27;1.23;;;;;;;1.52;100.00;100424.63;5021912;28;20224;-71
2023/03/05 09:03:44;;;;;;;2.17;1.20;;;;;;;1.77;100.00;100417.09;5022218;28;20185;-71
2023/03/05 09:06:12;;;;;;;4.87;1.13;;;;;;;1.84;100.00;100412.88;5022334;28;20281;-72
2023/03/05 09:08:39;;;;;;;3.67;1.10;;;;;;;1.80;100.00;100411.13;5019118;28;20283;-71
2023/03/05 09:11:08;;;;;;;3.10;1.27;;;;;;;1.87;100.00;100395.75;5018705;28;20582;-71
2023/03/05 09:13:36;;;;;;;1.60;1.10;;;;;;;1.90;100.00;100402.63;5022651;28;20279;-71
2023/03/05 09:16:05;;;;;;;1.83;1.40;;;;;;;1.88;100.00;100409.44;5010507;28;20207;-72
2023/03/05 09:18:35;;;;;;;3.27;2.00;;;;;;;1.89;100.00;100398.31;5023118;28;20204;-72
2023/03/05 09:21:04;;;;;;;10.07;6.93;;;;;;;1.86;100.00;100399.16;5020671;28;20228;-72
2023/03/05 09:23:31;;;;;;;3.00;2.00;;;;;;;1.80;100.00;100394.00;5024777;28;20232;-72
2023/03/05 09:25:57;;;;;;;1.27;1.17;;;;;;;1.73;100.00;100387.09;5023988;28;20207;-72
2023/03/05 09:28:24;;;;;;;2.77;1.00;;;;;;;1.84;100.00;100388.00;5023193;28;20192;-71
2023/03/05 09:30:51;;;;;;;3.33;1.20;;;;;;;1.88;100.00;100401.75;5028518;28;20649;-72
2023/03/05 09:33:18;;;;;;;1.20;1.10;;;;;;;1.91;100.00;100403.47;5021863;28;20397;-72
2023/03/05 09:35:44;;;;;;;3.87;1.20;;;;;;;2.00;100.00;100399.22;5008521;28;20203;-71
2023/03/05 09:38:11;;;;;;;3.10;1.03;;;;;;;2.01;100.00;100397.53;5025513;28;20779;-72
2023/03/05 09:40:45;;;;;;;4.13;1.20;;;;;;;2.02;100.00;100400.13;5023815;28;20200;-71
2023/03/05 09:43:24;;;;;;;4.70;1.40;;;;;;;2.06;100.00;100403.56;5020064;28;20604;-72
2023/03/05 09:46:02;;;;;;;3.10;1.13;;;;;;;2.28;100.00;100400.22;5020036;28;20498;-72
2023/03/05 09:48:46;;;;;;;4.73;1.00;;;;;;;2.35;100.00;100395.13;5018861;28;20705;-71
2023/03/05 09:51:19;;;;;;;2.00;1.00;;;;;;;2.21;100.00;100403.63;5018729;28;20219;-72
2023/03/05 09:53:50;;;;;;;1.77;0.67;;;;;;;2.16;100.00;100395.03;5023419;28;20235;-72
2023/03/05 09:56:20;;;;;;;0.57;0.50;;;;;;;2.21;100.00;100397.63;5021595;28;20197;-72
2023/03/05 09:58:50;;;;;;;1.73;0.90;;;;;;;2.12;100.00;100397.59;5022255;28;20281;-72
2023/03/05 10:01:21;;;;;;;2.70;0.60;;;;;;;2.23;100.00;100399.38;5021072;28;20800;-72
2023/03/05 10:03:56;;;;;;;3.23;0.80;;;;;;;2.38;100.00;100393.41;5020195;28;20223;-72
2023/03/05 10:06:26;;;;;;;0.40;0.40;;;;;;;2.58;100.00;100390.03;5025914;28;20202;-72
2023/03/05 10:08:56;;;;;;;2.83;1.03;;;;;;;2.75;100.00;100390.09;5025527;28;20657;-72
2023/03/05 10:11:34;;;;;;;2.47;0.60;;;;;;;3.02;100.00;100378.97;5026077;28;20223;-72
2023/03/05 10:14:02;;;;;;;0.93;0.60;;;;;;;3.18;100.00;100383.28;5024279;28;20191;-72
2023/03/05 10:16:53;;;;;;;0.57;0.50;;;;;;;3.18;100.00;100393.59;5024265;28;20200;-72
2023/03/05 10:19:32;;;;;;;0.60;0.60;;;;;;;3.25;100.00;100386.69;5002133;28;20227;-72
2023/03/05 10:22:14;;;;;;;3.33;0.63;;;;;;;3.33;100.00;100377.25;5022897;28;20277;-72
2023/03/05 10:24:55;;;;;;;1.93;0.60;;;;;;;3.30;100.00;100376.41;5006760;28;20206;-72
2023/03/05 10:27:35;;;;;;;2.27;0.80;;;;;;;3.30;100.00;100371.25;5021594;28;20201;-72
2023/03/05 10:30:19;;;;;;;2.60;0.90;;;;;;;3.63;100.00;100377.25;5007836;28;20316;-72
2023/03/05 10:32:54;;;;;;;2.97;0.77;;;;;;;3.68;100.00;100378.09;5007313;28;20216;-71
2023/03/05 10:35:47;;;;;;;2.27;1.73;;;;;;;3.81;100.00;100358.28;5023086;28;20199;-72
2023/03/05 10:38:34;;;;;;;4.67;3.70;;;;;;;3.88;100.00;100360.84;5020859;28;20215;-72
2023/03/05 10:41:07;;;;;;;4.00;3.00;;;;;;;3.76;100.00;100353.13;5020978;28;20238;-72
2023/03/05 10:43:40;;;;;;;5.23;2.50;;;;;;;3.77;100.00;100352.28;5019833;28;20210;-72
2023/03/05 10:46:15;;;;;;;2.67;1.93;;;;;;;3.95;99.18;100357.38;5025810;28;20680;-71
2023/03/05 10:48:48;;;;;;;6.37;3.97;;;;;;;4.07;99.36;100350.47;5021334;28;20191;-72
2023/03/05 10:51:18;;;;;;;4.63;2.97;;;;;;;4.22;98.49;100347.81;5021747;28;20237;-72
2023/03/05 10:53:52;;;;;;;4.20;2.20;;;;;;;4.14;94.29;100350.41;5017552;28;20207;-71
2023/03/05 10:56:21;;;;;;;7.10;3.50;;;;;;;4.06;94.09;100351.31;5022921;28;20218;-72
2023/03/05 10:58:48;;;;;;;2.33;1.60;;;;;;;3.85;92.17;100353.09;5017622;28;20240;-72
2023/03/05 11:01:22;;;;;;;3.83;2.00;;;;;;;3.77;93.57;100353.13;5020225;28;20238;-72
2023/03/05 11:03:54;;;;;;;2.30;1.37;;;;;;;3.59;94.58;100348.88;5019449;28;20208;-72
2023/03/05 11:06:35;;;;;;;4.77;3.07;;;;;;;3.59;96.78;100348.88;5023194;28;20195;-72
2023/03/05 11:09:17;;;;;;;1.10;1.00;;;;;;;3.65;98.09;100334.25;5021816;28;20199;-72
2023/03/05 11:11:44;;;;;;;2.17;1.90;;;;;;;3.70;99.00;100333.38;5000484;28;20219;-72
2023/03/05 11:14:28;;;;;;;0.83;0.60;;;;;;;3.72;96.84;100344.53;5017654;28;20203;-72
2023/03/05 11:16:55;;;;;;;1.10;1.00;;;;;;;3.76;99.23;100340.22;5022760;28;20672;-72
2023/03/05 11:19:28;;;;;;;2.03;1.40;;;;;;;3.71;95.24;100327.38;5025916;28;20204;-72
2023/03/05 11:22:09;;;;;;;1.13;0.90;;;;;;;3.91;98.68;100329.88;5023993;28;20219;-71
2023/03/05 11:24:39;;;;;;;2.30;0.80;;;;;;;3.98;89.61;100328.13;5004656;28;20184;-72
2023/03/05 11:27:22;;;;;;;1.87;1.07;;;;;;;4.13;95.26;100317.75;5001655;28;20237;-72
2023/03/05 11:29:50;;;;;;;1.70;1.00;;;;;;;4.25;94.80;100319.41;5019339;28;20231;-72